sensor_id;sensor_type;location;lat;lon;timestamp;P1;durP1;ratioP1;P2;durP2;ratioP2
20381;SDS011;10350;51.280;12.400;2023-04-19T00:01:49;3.88;;;3.67;;
20381;SDS011;10350;51.280;12.400;2023-04-19T00:04:15;5.00;;;4.53;;
20381;SDS011;10350;51.280;12.400;2023-04-19T00:06:41;5.68;;;4.95;;
20381;SDS011;10350;51.280;12.400;2023-04-19T00:09:07;4.90;;;4.50;;
20381;SDS011;10350;51.280;12.400;2023-04-19T00:11:33;5.85;;;4.20;;
20381;SDS011;10350;51.280;12.400;2023-04-19T00:13:59;4.47;;;4.07;;
20381;SDS011;10350;51.280;12.400;2023-04-19T00:16:25;4.53;;;4.18;;
20381;SDS011;10350;51.280;12.400;2023-04-19T00:18:51;4.05;;;3.72;;
20381;SDS011;10350;51.280;12.400;2023-04-19T00:21:17;4.07;;;3.78;;
20381;SDS011;10350;51.280;12.400;2023-04-19T00:23:43;4.85;;;4.43;;
20381;SDS011;10350;51.280;12.400;2023-04-19T00:26:09;4.75;;;4.40;;
20381;SDS011;10350;51.280;12.400;2023-04-19T00:28:35;3.90;;;3.60;;
20381;SDS011;10350;51.280;12.400;2023-04-19T00:31:01;4.50;;;4.13;;
20381;SDS011;10350;51.280;12.400;2023-04-19T00:33:27;7.82;;;5.55;;
20381;SDS011;10350;51.280;12.400;2023-04-19T00:35:53;4.13;;;3.90;;
20381;SDS011;10350;51.280;12.400;2023-04-19T00:38:19;5.05;;;4.10;;
20381;SDS011;10350;51.280;12.400;2023-04-19T00:40:45;5.10;;;4.07;;
20381;SDS011;10350;51.280;12.400;2023-04-19T00:43:15;4.85;;;4.55;;
20381;SDS011;10350;51.280;12.400;2023-04-19T00:45:41;4.15;;;3.85;;
20381;SDS011;10350;51.280;12.400;2023-04-19T00:48:07;6.35;;;3.95;;
20381;SDS011;10350;51.280;12.400;2023-04-19T00:50:35;4.38;;;3.97;;
20381;SDS011;10350;51.280;12.400;2023-04-19T00:53:01;4.43;;;3.90;;
20381;SDS011;10350;51.280;12.400;2023-04-19T00:55:28;4.25;;;3.78;;
20381;SDS011;10350;51.280;12.400;2023-04-19T00:57:54;4.93;;;4.53;;
20381;SDS011;10350;51.280;12.400;2023-04-19T01:00:19;4.70;;;4.22;;
20381;SDS011;10350;51.280;12.400;2023-04-19T01:02:46;6.35;;;4.03;;
20381;SDS011;10350;51.280;12.400;2023-04-19T01:05:12;6.20;;;4.45;;
20381;SDS011;10350;51.280;12.400;2023-04-19T01:07:38;4.28;;;3.88;;
20381;SDS011;10350;51.280;12.400;2023-04-19T01:10:04;5.88;;;5.28;;
20381;SDS011;10350;51.280;12.400;2023-04-19T01:12:31;4.10;;;3.70;;
20381;SDS011;10350;51.280;12.400;2023-04-19T01:14:57;4.18;;;3.78;;
20381;SDS011;10350;51.280;12.400;2023-04-19T01:17:23;3.78;;;3.50;;
20381;SDS011;10350;51.280;12.400;2023-04-19T01:19:49;7.93;;;4.57;;
20381;SDS011;10350;51.280;12.400;2023-04-19T01:22:17;4.40;;;4.00;;
20381;SDS011;10350;51.280;12.400;2023-04-19T01:24:44;4.75;;;3.83;;
20381;SDS011;10350;51.280;12.400;2023-04-19T01:27:10;4.22;;;3.92;;
20381;SDS011;10350;51.280;12.400;2023-04-19T01:29:37;6.50;;;4.32;;
20381;SDS011;10350;51.280;12.400;2023-04-19T01:32:03;6.55;;;4.72;;
20381;SDS011;10350;51.280;12.400;2023-04-19T01:34:29;5.40;;;4.88;;
20381;SDS011;10350;51.280;12.400;2023-04-19T01:36:55;5.18;;;4.43;;
20381;SDS011;10350;51.280;12.400;2023-04-19T01:39:21;4.35;;;4.03;;
20381;SDS011;10350;51.280;12.400;2023-04-19T01:41:47;4.55;;;4.15;;
20381;SDS011;10350;51.280;12.400;2023-04-19T01:44:13;4.25;;;3.85;;
20381;SDS011;10350;51.280;12.400;2023-04-19T01:46:39;4.78;;;4.38;;
20381;SDS011;10350;51.280;12.400;2023-04-19T01:49:06;4.38;;;3.90;;
20381;SDS011;10350;51.280;12.400;2023-04-19T01:51:32;4.68;;;4.18;;
20381;SDS011;10350;51.280;12.400;2023-04-19T01:53:58;5.25;;;3.47;;
20381;SDS011;10350;51.280;12.400;2023-04-19T01:56:25;4.80;;;3.85;;
20381;SDS011;10350;51.280;12.400;2023-04-19T01:58:51;4.55;;;4.15;;
20381;SDS011;10350;51.280;12.400;2023-04-19T02:01:17;5.10;;;4.70;;
20381;SDS011;10350;51.280;12.400;2023-04-19T02:03:43;4.18;;;3.88;;
20381;SDS011;10350;51.280;12.400;2023-04-19T02:06:10;6.80;;;5.20;;
20381;SDS011;10350;51.280;12.400;2023-04-19T02:08:36;4.22;;;3.92;;
20381;SDS011;10350;51.280;12.400;2023-04-19T02:11:09;4.80;;;4.25;;
20381;SDS011;10350;51.280;12.400;2023-04-19T02:13:35;7.82;;;4.53;;
20381;SDS011;10350;51.280;12.400;2023-04-19T02:16:01;4.88;;;4.40;;
20381;SDS011;10350;51.280;12.400;2023-04-19T02:18:31;3.70;;;3.47;;
20381;SDS011;10350;51.280;12.400;2023-04-19T02:21:00;4.95;;;3.97;;
20381;SDS011;10350;51.280;12.400;2023-04-19T02:23:26;4.07;;;3.78;;
20381;SDS011;10350;51.280;12.400;2023-04-19T02:25:52;4.03;;;3.72;;
20381;SDS011;10350;51.280;12.400;2023-04-19T02:28:18;6.32;;;4.60;;
20381;SDS011;10350;51.280;12.400;2023-04-19T02:30:44;5.00;;;4.13;;
20381;SDS011;10350;51.280;12.400;2023-04-19T02:33:10;4.68;;;4.38;;
20381;SDS011;10350;51.280;12.400;2023-04-19T02:35:36;8.23;;;4.93;;
20381;SDS011;10350;51.280;12.400;2023-04-19T02:38:02;6.70;;;4.22;;
20381;SDS011;10350;51.280;12.400;2023-04-19T02:40:29;4.93;;;4.07;;
20381;SDS011;10350;51.280;12.400;2023-04-19T02:42:55;6.25;;;5.35;;
20381;SDS011;10350;51.280;12.400;2023-04-19T02:45:21;5.78;;;4.53;;
20381;SDS011;10350;51.280;12.400;2023-04-19T02:47:47;4.38;;;3.97;;
20381;SDS011;10350;51.280;12.400;2023-04-19T02:50:14;4.97;;;4.20;;
20381;SDS011;10350;51.280;12.400;2023-04-19T02:52:40;5.27;;;4.77;;
20381;SDS011;10350;51.280;12.400;2023-04-19T02:55:06;4.30;;;3.90;;
20381;SDS011;10350;51.280;12.400;2023-04-19T02:57:32;5.20;;;4.60;;
20381;SDS011;10350;51.280;12.400;2023-04-19T02:59:58;5.88;;;3.92;;
20381;SDS011;10350;51.280;12.400;2023-04-19T03:02:24;5.93;;;4.55;;
20381;SDS011;10350;51.280;12.400;2023-04-19T03:04:50;4.28;;;3.88;;
20381;SDS011;10350;51.280;12.400;2023-04-19T03:07:19;5.43;;;4.90;;
20381;SDS011;10350;51.280;12.400;2023-04-19T03:09:45;4.22;;;3.85;;
20381;SDS011;10350;51.280;12.400;2023-04-19T03:12:11;4.38;;;3.97;;
20381;SDS011;10350;51.280;12.400;2023-04-19T03:14:37;4.47;;;4.13;;
20381;SDS011;10350;51.280;12.400;2023-04-19T03:17:03;4.35;;;4.05;;
20381;SDS011;10350;51.280;12.400;2023-04-19T03:19:29;8.23;;;5.35;;
20381;SDS011;10350;51.280;12.400;2023-04-19T03:21:55;5.53;;;5.03;;
20381;SDS011;10350;51.280;12.400;2023-04-19T03:24:30;4.63;;;4.13;;
20381;SDS011;10350;51.280;12.400;2023-04-19T03:26:56;4.35;;;3.88;;
20381;SDS011;10350;51.280;12.400;2023-04-19T03:29:22;5.38;;;4.88;;
20381;SDS011;10350;51.280;12.400;2023-04-19T03:31:48;10.63;;;4.07;;
20381;SDS011;10350;51.280;12.400;2023-04-19T03:34:14;5.38;;;4.03;;
20381;SDS011;10350;51.280;12.400;2023-04-19T03:36:40;4.68;;;4.25;;
20381;SDS011;10350;51.280;12.400;2023-04-19T03:39:06;5.57;;;3.90;;
20381;SDS011;10350;51.280;12.400;2023-04-19T03:41:32;4.75;;;4.28;;
20381;SDS011;10350;51.280;12.400;2023-04-19T03:43:58;6.60;;;4.65;;
20381;SDS011;10350;51.280;12.400;2023-04-19T03:46:24;11.52;;;4.35;;
20381;SDS011;10350;51.280;12.400;2023-04-19T03:48:50;4.07;;;3.75;;
20381;SDS011;10350;51.280;12.400;2023-04-19T03:51:17;5.35;;;4.95;;
20381;SDS011;10350;51.280;12.400;2023-04-19T03:53:43;4.05;;;3.58;;
20381;SDS011;10350;51.280;12.400;2023-04-19T03:56:09;4.55;;;3.80;;
20381;SDS011;10350;51.280;12.400;2023-04-19T03:58:35;4.15;;;3.83;;
20381;SDS011;10350;51.280;12.400;2023-04-19T04:01:01;3.63;;;3.33;;
20381;SDS011;10350;51.280;12.400;2023-04-19T04:03:27;4.03;;;3.72;;
20381;SDS011;10350;51.280;12.400;2023-04-19T04:05:53;4.82;;;4.43;;
20381;SDS011;10350;51.280;12.400;2023-04-19T04:08:19;5.00;;;3.90;;
20381;SDS011;10350;51.280;12.400;2023-04-19T04:10:45;4.13;;;3.70;;
20381;SDS011;10350;51.280;12.400;2023-04-19T04:13:11;3.28;;;3.08;;
20381;SDS011;10350;51.280;12.400;2023-04-19T04:15:37;3.95;;;3.15;;
20381;SDS011;10350;51.280;12.400;2023-04-19T04:18:03;4.00;;;3.65;;
20381;SDS011;10350;51.280;12.400;2023-04-19T04:20:30;3.60;;;3.20;;
20381;SDS011;10350;51.280;12.400;2023-04-19T04:22:56;3.22;;;2.95;;
20381;SDS011;10350;51.280;12.400;2023-04-19T04:25:22;3.42;;;3.15;;
20381;SDS011;10350;51.280;12.400;2023-04-19T04:27:50;8.03;;;3.20;;
20381;SDS011;10350;51.280;12.400;2023-04-19T04:30:16;5.43;;;3.20;;
20381;SDS011;10350;51.280;12.400;2023-04-19T04:32:42;3.92;;;3.30;;
20381;SDS011;10350;51.280;12.400;2023-04-19T04:35:09;4.88;;;3.45;;
20381;SDS011;10350;51.280;12.400;2023-04-19T04:37:35;4.30;;;3.90;;
20381;SDS011;10350;51.280;12.400;2023-04-19T04:40:02;3.47;;;2.78;;
20381;SDS011;10350;51.280;12.400;2023-04-19T04:42:35;3.10;;;2.90;;
20381;SDS011;10350;51.280;12.400;2023-04-19T04:45:01;3.03;;;2.92;;
20381;SDS011;10350;51.280;12.400;2023-04-19T04:47:32;2.83;;;2.70;;
20381;SDS011;10350;51.280;12.400;2023-04-19T04:49:58;3.88;;;3.50;;
20381;SDS011;10350;51.280;12.400;2023-04-19T04:52:24;3.30;;;3.10;;
20381;SDS011;10350;51.280;12.400;2023-04-19T04:54:50;3.88;;;3.58;;
20381;SDS011;10350;51.280;12.400;2023-04-19T04:57:16;3.45;;;3.25;;
20381;SDS011;10350;51.280;12.400;2023-04-19T04:59:42;2.88;;;2.78;;
20381;SDS011;10350;51.280;12.400;2023-04-19T05:02:08;7.63;;;3.70;;
20381;SDS011;10350;51.280;12.400;2023-04-19T05:04:35;3.47;;;3.22;;
20381;SDS011;10350;51.280;12.400;2023-04-19T05:07:01;3.67;;;3.47;;
20381;SDS011;10350;51.280;12.400;2023-04-19T05:09:26;3.95;;;3.65;;
20381;SDS011;10350;51.280;12.400;2023-04-19T05:11:52;2.70;;;2.60;;
20381;SDS011;10350;51.280;12.400;2023-04-19T05:14:18;2.97;;;2.80;;
20381;SDS011;10350;51.280;12.400;2023-04-19T05:16:44;3.05;;;2.95;;
20381;SDS011;10350;51.280;12.400;2023-04-19T05:19:10;3.10;;;2.90;;
20381;SDS011;10350;51.280;12.400;2023-04-19T05:21:37;3.08;;;2.90;;
20381;SDS011;10350;51.280;12.400;2023-04-19T05:24:03;3.22;;;3.03;;
20381;SDS011;10350;51.280;12.400;2023-04-19T05:26:30;3.00;;;2.80;;
20381;SDS011;10350;51.280;12.400;2023-04-19T05:28:56;2.42;;;2.30;;
20381;SDS011;10350;51.280;12.400;2023-04-19T05:31:22;2.63;;;2.45;;
20381;SDS011;10350;51.280;12.400;2023-04-19T05:33:48;3.47;;;3.25;;
20381;SDS011;10350;51.280;12.400;2023-04-19T05:36:14;3.15;;;2.95;;
20381;SDS011;10350;51.280;12.400;2023-04-19T05:38:40;2.70;;;2.60;;
20381;SDS011;10350;51.280;12.400;2023-04-19T05:41:06;2.83;;;2.72;;
20381;SDS011;10350;51.280;12.400;2023-04-19T05:43:32;3.53;;;3.20;;
20381;SDS011;10350;51.280;12.400;2023-04-19T05:45:58;5.72;;;2.95;;
20381;SDS011;10350;51.280;12.400;2023-04-19T05:48:24;3.30;;;3.17;;
20381;SDS011;10350;51.280;12.400;2023-04-19T05:50:50;3.25;;;3.05;;
20381;SDS011;10350;51.280;12.400;2023-04-19T05:53:21;4.63;;;2.70;;
20381;SDS011;10350;51.280;12.400;2023-04-19T05:55:47;3.55;;;3.25;;
20381;SDS011;10350;51.280;12.400;2023-04-19T05:58:14;3.57;;;3.30;;
20381;SDS011;10350;51.280;12.400;2023-04-19T06:00:40;2.88;;;2.78;;
20381;SDS011;10350;51.280;12.400;2023-04-19T06:03:06;2.90;;;2.78;;
20381;SDS011;10350;51.280;12.400;2023-04-19T06:05:32;3.53;;;3.22;;
20381;SDS011;10350;51.280;12.400;2023-04-19T06:07:58;2.90;;;2.70;;
20381;SDS011;10350;51.280;12.400;2023-04-19T06:10:24;2.75;;;2.65;;
20381;SDS011;10350;51.280;12.400;2023-04-19T06:12:50;2.90;;;2.70;;
20381;SDS011;10350;51.280;12.400;2023-04-19T06:15:16;2.53;;;2.40;;
20381;SDS011;10350;51.280;12.400;2023-04-19T06:17:42;4.38;;;2.80;;
20381;SDS011;10350;51.280;12.400;2023-04-19T06:20:08;2.80;;;2.60;;
20381;SDS011;10350;51.280;12.400;2023-04-19T06:22:40;3.15;;;2.95;;
20381;SDS011;10350;51.280;12.400;2023-04-19T06:25:06;2.80;;;2.65;;
20381;SDS011;10350;51.280;12.400;2023-04-19T06:27:32;3.05;;;2.85;;
20381;SDS011;10350;51.280;12.400;2023-04-19T06:29:58;2.88;;;2.78;;
20381;SDS011;10350;51.280;12.400;2023-04-19T06:32:25;3.30;;;3.20;;
20381;SDS011;10350;51.280;12.400;2023-04-19T06:34:51;2.88;;;2.78;;
20381;SDS011;10350;51.280;12.400;2023-04-19T06:37:16;3.30;;;3.10;;
20381;SDS011;10350;51.280;12.400;2023-04-19T06:39:42;3.30;;;3.10;;
20381;SDS011;10350;51.280;12.400;2023-04-19T06:42:08;3.85;;;3.55;;
20381;SDS011;10350;51.280;12.400;2023-04-19T06:44:36;3.03;;;2.93;;
20381;SDS011;10350;51.280;12.400;2023-04-19T06:47:02;3.97;;;3.42;;
20381;SDS011;10350;51.280;12.400;2023-04-19T06:49:28;3.38;;;3.25;;
20381;SDS011;10350;51.280;12.400;2023-04-19T06:51:54;4.78;;;4.57;;
20381;SDS011;10350;51.280;12.400;2023-04-19T06:54:20;3.75;;;3.55;;
20381;SDS011;10350;51.280;12.400;2023-04-19T06:56:47;3.97;;;3.67;;
20381;SDS011;10350;51.280;12.400;2023-04-19T06:59:14;3.60;;;3.40;;
20381;SDS011;10350;51.280;12.400;2023-04-19T07:01:41;4.20;;;4.00;;
20381;SDS011;10350;51.280;12.400;2023-04-19T07:04:07;3.35;;;3.22;;
20381;SDS011;10350;51.280;12.400;2023-04-19T07:06:34;3.42;;;3.20;;
20381;SDS011;10350;51.280;12.400;2023-04-19T07:09:00;4.20;;;3.90;;
20381;SDS011;10350;51.280;12.400;2023-04-19T07:11:26;3.55;;;3.35;;
20381;SDS011;10350;51.280;12.400;2023-04-19T07:13:52;3.42;;;3.33;;
20381;SDS011;10350;51.280;12.400;2023-04-19T07:16:18;4.00;;;3.80;;
20381;SDS011;10350;51.280;12.400;2023-04-19T07:18:44;4.13;;;3.75;;
20381;SDS011;10350;51.280;12.400;2023-04-19T07:21:10;3.50;;;3.35;;
20381;SDS011;10350;51.280;12.400;2023-04-19T07:23:36;5.65;;;4.05;;
20381;SDS011;10350;51.280;12.400;2023-04-19T07:26:02;4.72;;;4.32;;
20381;SDS011;10350;51.280;12.400;2023-04-19T07:28:28;4.38;;;4.07;;
20381;SDS011;10350;51.280;12.400;2023-04-19T07:30:54;4.85;;;4.55;;
20381;SDS011;10350;51.280;12.400;2023-04-19T07:33:21;5.50;;;5.20;;
20381;SDS011;10350;51.280;12.400;2023-04-19T07:35:47;6.10;;;5.75;;
20381;SDS011;10350;51.280;12.400;2023-04-19T07:38:13;5.57;;;5.28;;
20381;SDS011;10350;51.280;12.400;2023-04-19T07:40:39;5.38;;;4.97;;
20381;SDS011;10350;51.280;12.400;2023-04-19T07:43:05;3.95;;;3.65;;
20381;SDS011;10350;51.280;12.400;2023-04-19T07:45:31;2.90;;;2.80;;
20381;SDS011;10350;51.280;12.400;2023-04-19T07:47:57;4.95;;;3.45;;
20381;SDS011;10350;51.280;12.400;2023-04-19T07:50:24;3.50;;;3.30;;
20381;SDS011;10350;51.280;12.400;2023-04-19T07:52:50;3.57;;;3.37;;
20381;SDS011;10350;51.280;12.400;2023-04-19T07:55:16;3.60;;;3.30;;
20381;SDS011;10350;51.280;12.400;2023-04-19T07:57:42;3.33;;;3.22;;
20381;SDS011;10350;51.280;12.400;2023-04-19T08:00:16;3.95;;;3.75;;
20381;SDS011;10350;51.280;12.400;2023-04-19T08:02:42;4.95;;;4.65;;
20381;SDS011;10350;51.280;12.400;2023-04-19T08:05:09;4.90;;;3.80;;
20381;SDS011;10350;51.280;12.400;2023-04-19T08:07:35;3.58;;;3.38;;
20381;SDS011;10350;51.280;12.400;2023-04-19T08:10:01;3.85;;;3.63;;
20381;SDS011;10350;51.280;12.400;2023-04-19T08:12:27;3.90;;;3.70;;
20381;SDS011;10350;51.280;12.400;2023-04-19T08:14:53;3.50;;;3.20;;
20381;SDS011;10350;51.280;12.400;2023-04-19T08:17:19;3.60;;;3.40;;
20381;SDS011;10350;51.280;12.400;2023-04-19T08:19:48;3.63;;;3.42;;
20381;SDS011;10350;51.280;12.400;2023-04-19T08:22:14;4.57;;;3.25;;
20381;SDS011;10350;51.280;12.400;2023-04-19T08:24:43;2.90;;;2.80;;
20381;SDS011;10350;51.280;12.400;2023-04-19T08:27:10;3.58;;;3.28;;
20381;SDS011;10350;51.280;12.400;2023-04-19T08:29:36;3.50;;;3.30;;
20381;SDS011;10350;51.280;12.400;2023-04-19T08:32:04;3.28;;;3.08;;
20381;SDS011;10350;51.280;12.400;2023-04-19T08:34:33;4.82;;;3.05;;
20381;SDS011;10350;51.280;12.400;2023-04-19T08:36:59;3.15;;;2.95;;
20381;SDS011;10350;51.280;12.400;2023-04-19T08:39:26;3.42;;;2.90;;
20381;SDS011;10350;51.280;12.400;2023-04-19T08:41:52;3.58;;;3.38;;
20381;SDS011;10350;51.280;12.400;2023-04-19T08:44:21;3.42;;;3.13;;
20381;SDS011;10350;51.280;12.400;2023-04-19T08:46:48;3.55;;;3.35;;
20381;SDS011;10350;51.280;12.400;2023-04-19T08:49:14;3.95;;;3.60;;
20381;SDS011;10350;51.280;12.400;2023-04-19T08:51:44;3.50;;;3.30;;
20381;SDS011;10350;51.280;12.400;2023-04-19T08:54:11;3.55;;;3.35;;
20381;SDS011;10350;51.280;12.400;2023-04-19T08:56:36;3.70;;;3.50;;
20381;SDS011;10350;51.280;12.400;2023-04-19T08:59:03;3.85;;;3.55;;
20381;SDS011;10350;51.280;12.400;2023-04-19T09:01:29;3.78;;;3.58;;
20381;SDS011;10350;51.280;12.400;2023-04-19T09:03:55;3.88;;;3.58;;
20381;SDS011;10350;51.280;12.400;2023-04-19T09:06:21;4.10;;;3.80;;
20381;SDS011;10350;51.280;12.400;2023-04-19T09:08:46;3.85;;;3.55;;
20381;SDS011;10350;51.280;12.400;2023-04-19T09:11:12;3.60;;;3.40;;
20381;SDS011;10350;51.280;12.400;2023-04-19T09:13:39;4.05;;;3.78;;
20381;SDS011;10350;51.280;12.400;2023-04-19T09:16:21;3.80;;;3.50;;
20381;SDS011;10350;51.280;12.400;2023-04-19T09:18:54;5.50;;;4.60;;
20381;SDS011;10350;51.280;12.400;2023-04-19T09:21:30;3.90;;;3.70;;
20381;SDS011;10350;51.280;12.400;2023-04-19T09:23:56;4.68;;;4.32;;
20381;SDS011;10350;51.280;12.400;2023-04-19T09:26:23;5.55;;;4.28;;
20381;SDS011;10350;51.280;12.400;2023-04-19T09:31:22;5.85;;;5.35;;
20381;SDS011;10350;51.280;12.400;2023-04-19T09:33:49;4.18;;;3.88;;
20381;SDS011;10350;51.280;12.400;2023-04-19T09:36:28;3.95;;;3.75;;
20381;SDS011;10350;51.280;12.400;2023-04-19T09:38:54;4.68;;;4.38;;
20381;SDS011;10350;51.280;12.400;2023-04-19T09:41:20;4.22;;;4.03;;
20381;SDS011;10350;51.280;12.400;2023-04-19T09:43:46;4.55;;;4.32;;
20381;SDS011;10350;51.280;12.400;2023-04-19T09:46:28;3.78;;;3.58;;
20381;SDS011;10350;51.280;12.400;2023-04-19T09:48:58;4.25;;;3.95;;
20381;SDS011;10350;51.280;12.400;2023-04-19T09:51:40;3.80;;;3.50;;
20381;SDS011;10350;51.280;12.400;2023-04-19T09:54:07;3.72;;;3.53;;
20381;SDS011;10350;51.280;12.400;2023-04-19T09:56:34;3.60;;;3.40;;
20381;SDS011;10350;51.280;12.400;2023-04-19T09:59:01;3.78;;;3.58;;
20381;SDS011;10350;51.280;12.400;2023-04-19T10:01:28;4.85;;;4.45;;
20381;SDS011;10350;51.280;12.400;2023-04-19T10:03:55;4.30;;;4.00;;
20381;SDS011;10350;51.280;12.400;2023-04-19T10:06:22;3.72;;;3.53;;
20381;SDS011;10350;51.280;12.400;2023-04-19T10:08:49;4.35;;;4.15;;
20381;SDS011;10350;51.280;12.400;2023-04-19T10:11:15;5.20;;;4.88;;
20381;SDS011;10350;51.280;12.400;2023-04-19T10:13:41;7.10;;;6.65;;
20381;SDS011;10350;51.280;12.400;2023-04-19T10:16:08;6.72;;;5.75;;
20381;SDS011;10350;51.280;12.400;2023-04-19T10:18:34;4.20;;;3.97;;
20381;SDS011;10350;51.280;12.400;2023-04-19T10:21:02;3.88;;;3.67;;
20381;SDS011;10350;51.280;12.400;2023-04-19T10:23:31;4.50;;;4.20;;
20381;SDS011;10350;51.280;12.400;2023-04-19T10:25:57;4.63;;;4.40;;
20381;SDS011;10350;51.280;12.400;2023-04-19T10:28:23;5.70;;;5.30;;
20381;SDS011;10350;51.280;12.400;2023-04-19T10:30:54;5.82;;;5.43;;
20381;SDS011;10350;51.280;12.400;2023-04-19T10:33:26;5.40;;;5.13;;
20381;SDS011;10350;51.280;12.400;2023-04-19T10:35:59;5.57;;;5.28;;
20381;SDS011;10350;51.280;12.400;2023-04-19T10:38:44;5.72;;;5.43;;
20381;SDS011;10350;51.280;12.400;2023-04-19T10:41:13;5.30;;;5.00;;
20381;SDS011;10350;51.280;12.400;2023-04-19T10:48:39;6.07;;;4.85;;
20381;SDS011;10350;51.280;12.400;2023-04-19T10:56:10;4.85;;;4.55;;
20381;SDS011;10350;51.280;12.400;2023-04-19T11:03:57;4.15;;;3.83;;
20381;SDS011;10350;51.280;12.400;2023-04-19T11:06:23;4.30;;;4.07;;
20381;SDS011;10350;51.280;12.400;2023-04-19T11:11:18;4.25;;;3.95;;
20381;SDS011;10350;51.280;12.400;2023-04-19T11:13:46;3.20;;;3.00;;
20381;SDS011;10350;51.280;12.400;2023-04-19T11:16:12;3.60;;;3.40;;
20381;SDS011;10350;51.280;12.400;2023-04-19T11:18:38;3.58;;;3.38;;
20381;SDS011;10350;51.280;12.400;2023-04-19T11:21:04;4.07;;;3.83;;
20381;SDS011;10350;51.280;12.400;2023-04-19T11:23:30;4.57;;;4.28;;
20381;SDS011;10350;51.280;12.400;2023-04-19T11:25:57;4.10;;;3.70;;
20381;SDS011;10350;51.280;12.400;2023-04-19T11:28:23;4.07;;;3.88;;
20381;SDS011;10350;51.280;12.400;2023-04-19T11:30:49;4.35;;;4.10;;
20381;SDS011;10350;51.280;12.400;2023-04-19T11:33:15;5.32;;;5.03;;
20381;SDS011;10350;51.280;12.400;2023-04-19T11:35:48;5.63;;;5.22;;
20381;SDS011;10350;51.280;12.400;2023-04-19T11:38:15;5.47;;;5.07;;
20381;SDS011;10350;51.280;12.400;2023-04-19T11:40:41;4.72;;;4.32;;
20381;SDS011;10350;51.280;12.400;2023-04-19T11:43:07;4.82;;;4.35;;
20381;SDS011;10350;51.280;12.400;2023-04-19T11:45:34;4.05;;;3.85;;
20381;SDS011;10350;51.280;12.400;2023-04-19T11:48:01;3.92;;;3.63;;
20381;SDS011;10350;51.280;12.400;2023-04-19T11:50:31;3.55;;;3.35;;
20381;SDS011;10350;51.280;12.400;2023-04-19T11:52:57;4.40;;;4.10;;
20381;SDS011;10350;51.280;12.400;2023-04-19T11:55:24;5.80;;;4.00;;
20381;SDS011;10350;51.280;12.400;2023-04-19T11:57:50;4.15;;;3.85;;
20381;SDS011;10350;51.280;12.400;2023-04-19T12:00:17;4.40;;;3.58;;
20381;SDS011;10350;51.280;12.400;2023-04-19T12:02:52;3.90;;;3.60;;
20381;SDS011;10350;51.280;12.400;2023-04-19T12:05:18;3.90;;;3.55;;
20381;SDS011;10350;51.280;12.400;2023-04-19T12:08:00;4.75;;;3.13;;
20381;SDS011;10350;51.280;12.400;2023-04-19T12:10:32;3.40;;;3.20;;
20381;SDS011;10350;51.280;12.400;2023-04-19T12:12:59;3.47;;;3.28;;
20381;SDS011;10350;51.280;12.400;2023-04-19T12:15:41;3.50;;;3.22;;
20381;SDS011;10350;51.280;12.400;2023-04-19T12:18:07;4.68;;;4.28;;
20381;SDS011;10350;51.280;12.400;2023-04-19T12:20:34;3.63;;;3.33;;
20381;SDS011;10350;51.280;12.400;2023-04-19T12:23:00;4.15;;;3.05;;
20381;SDS011;10350;51.280;12.400;2023-04-19T12:25:28;3.80;;;3.50;;
20381;SDS011;10350;51.280;12.400;2023-04-19T12:27:54;4.22;;;3.92;;
20381;SDS011;10350;51.280;12.400;2023-04-19T12:30:20;3.85;;;3.65;;
20381;SDS011;10350;51.280;12.400;2023-04-19T12:32:46;6.07;;;3.35;;
20381;SDS011;10350;51.280;12.400;2023-04-19T12:35:12;3.80;;;3.30;;
20381;SDS011;10350;51.280;12.400;2023-04-19T12:37:38;3.70;;;3.50;;
20381;SDS011;10350;51.280;12.400;2023-04-19T12:40:04;4.05;;;3.75;;
20381;SDS011;10350;51.280;12.400;2023-04-19T12:42:30;4.00;;;3.80;;
20381;SDS011;10350;51.280;12.400;2023-04-19T12:44:56;4.28;;;4.07;;
20381;SDS011;10350;51.280;12.400;2023-04-19T12:47:22;4.38;;;4.07;;
20381;SDS011;10350;51.280;12.400;2023-04-19T12:49:48;4.72;;;4.30;;
20381;SDS011;10350;51.280;12.400;2023-04-19T12:52:15;3.53;;;3.33;;
20381;SDS011;10350;51.280;12.400;2023-04-19T12:54:41;3.80;;;3.53;;
20381;SDS011;10350;51.280;12.400;2023-04-19T12:57:07;3.13;;;3.03;;
20381;SDS011;10350;51.280;12.400;2023-04-19T12:59:33;3.22;;;3.03;;
20381;SDS011;10350;51.280;12.400;2023-04-19T13:01:59;2.97;;;2.88;;
20381;SDS011;10350;51.280;12.400;2023-04-19T13:04:25;5.40;;;3.85;;
20381;SDS011;10350;51.280;12.400;2023-04-19T13:06:50;3.75;;;3.55;;
20381;SDS011;10350;51.280;12.400;2023-04-19T13:09:16;4.18;;;3.85;;
20381;SDS011;10350;51.280;12.400;2023-04-19T13:11:43;4.60;;;3.85;;
20381;SDS011;10350;51.280;12.400;2023-04-19T13:14:09;3.33;;;3.13;;
20381;SDS011;10350;51.280;12.400;2023-04-19T13:16:35;4.63;;;4.13;;
20381;SDS011;10350;51.280;12.400;2023-04-19T13:19:01;5.40;;;5.00;;
20381;SDS011;10350;51.280;12.400;2023-04-19T13:21:27;8.20;;;4.88;;
20381;SDS011;10350;51.280;12.400;2023-04-19T13:23:53;4.10;;;3.80;;
20381;SDS011;10350;51.280;12.400;2023-04-19T13:26:19;3.63;;;3.33;;
20381;SDS011;10350;51.280;12.400;2023-04-19T13:28:45;4.85;;;3.90;;
20381;SDS011;10350;51.280;12.400;2023-04-19T13:31:11;3.55;;;3.35;;
20381;SDS011;10350;51.280;12.400;2023-04-19T13:33:36;4.30;;;4.00;;
20381;SDS011;10350;51.280;12.400;2023-04-19T13:36:03;4.25;;;3.95;;
20381;SDS011;10350;51.280;12.400;2023-04-19T13:38:29;3.92;;;3.70;;
20381;SDS011;10350;51.280;12.400;2023-04-19T13:40:55;3.80;;;3.60;;
20381;SDS011;10350;51.280;12.400;2023-04-19T13:43:20;3.75;;;3.45;;
20381;SDS011;10350;51.280;12.400;2023-04-19T13:45:46;3.92;;;3.67;;
20381;SDS011;10350;51.280;12.400;2023-04-19T13:48:12;3.75;;;3.45;;
20381;SDS011;10350;51.280;12.400;2023-04-19T13:50:38;3.30;;;3.10;;
20381;SDS011;10350;51.280;12.400;2023-04-19T13:53:04;3.38;;;3.10;;
20381;SDS011;10350;51.280;12.400;2023-04-19T13:55:30;12.70;;;3.40;;
20381;SDS011;10350;51.280;12.400;2023-04-19T13:57:56;3.70;;;3.50;;
20381;SDS011;10350;51.280;12.400;2023-04-19T14:00:22;3.50;;;3.28;;
20381;SDS011;10350;51.280;12.400;2023-04-19T14:02:48;3.67;;;3.45;;
20381;SDS011;10350;51.280;12.400;2023-04-19T14:05:14;3.60;;;3.40;;
20381;SDS011;10350;51.280;12.400;2023-04-19T14:07:40;3.83;;;3.30;;
20381;SDS011;10350;51.280;12.400;2023-04-19T14:10:07;3.97;;;3.33;;
20381;SDS011;10350;51.280;12.400;2023-04-19T14:12:33;3.92;;;3.67;;
20381;SDS011;10350;51.280;12.400;2023-04-19T14:14:59;4.00;;;3.70;;
20381;SDS011;10350;51.280;12.400;2023-04-19T14:17:25;3.15;;;3.00;;
20381;SDS011;10350;51.280;12.400;2023-04-19T14:19:51;4.07;;;3.70;;
20381;SDS011;10350;51.280;12.400;2023-04-19T14:22:17;2.88;;;2.78;;
20381;SDS011;10350;51.280;12.400;2023-04-19T14:24:43;3.35;;;3.15;;
20381;SDS011;10350;51.280;12.400;2023-04-19T14:27:10;3.47;;;3.28;;
20381;SDS011;10350;51.280;12.400;2023-04-19T14:29:36;3.90;;;3.55;;
20381;SDS011;10350;51.280;12.400;2023-04-19T14:32:02;4.13;;;3.72;;
20381;SDS011;10350;51.280;12.400;2023-04-19T14:34:28;3.42;;;3.22;;
20381;SDS011;10350;51.280;12.400;2023-04-19T14:36:54;4.03;;;3.65;;
20381;SDS011;10350;51.280;12.400;2023-04-19T14:39:20;3.90;;;3.60;;
20381;SDS011;10350;51.280;12.400;2023-04-19T14:41:45;4.15;;;3.85;;
20381;SDS011;10350;51.280;12.400;2023-04-19T14:44:11;3.22;;;3.03;;
20381;SDS011;10350;51.280;12.400;2023-04-19T14:46:37;3.40;;;3.13;;
20381;SDS011;10350;51.280;12.400;2023-04-19T14:49:03;4.60;;;3.30;;
20381;SDS011;10350;51.280;12.400;2023-04-19T14:51:30;3.80;;;3.60;;